HESC

St Catherine International Airport

Egypt
METAR HESC 260200Z 00000KT CAVOK 10/M02 Q1015 NOSIG
Observed Flight Rules
Feb-26 @ 02:00 UTC (an hour ago) Visual Flight Rules
Wind Visibility Clouds
Calm 10,000+ meters
  • Clear skies
Temperatures Readings
Current 10°C / 50°F
Dewpoint -2°C / 28°F
Humidity 43%
Altimeter 29.97" Hg
Pressure 1015 hPa
Elevation 1332
METAR HESC 260200Z 00000KT CAVOK 10/M02 Q1015 NOSIG
Observed Flight Rules
Feb-26 @ 02:00 UTC
(an hour ago)
VFR
Wind Visibility
Calm 10,000+ meters
Clouds
  • Clear skies
Temperature Dewpoint
10°C / 50°F -2°C / 28°F
Humidity Altimeter Pressure
43% 29.97" Hg 1015 hPa